Time;durP1;ratioP1;P1;durP2;ratioP2;P2;SDS_P1;SDS_P2;PMS_P1;PMS_P2;Temp;Humidity;BMP_temperature;BMP_pressure;BME280_temperature;BME280_humidity;BME280_pressure;Samples;Min_cycle;Max_cycle;Signal;HPM_P1;HPM_P2
2023/09/18 00:00:53;;;;;;;18.02;16.13;;;;;;;20.00;87.43;100496.09;5016017;28;20069;-70
2023/09/18 00:03:20;;;;;;;18.27;16.38;;;;;;;19.97;87.78;100486.31;5031757;28;20040;-70
2023/09/18 00:05:48;;;;;;;17.67;15.55;;;;;;;19.99;87.71;100478.38;5031762;28;20025;-70
2023/09/18 00:08:15;;;;;;;17.95;16.15;;;;;;;20.01;87.73;100478.06;5030988;28;20120;-70
2023/09/18 00:10:40;;;;;;;17.75;15.80;;;;;;;19.98;87.60;100482.34;5024341;28;20030;-70
2023/09/18 00:13:06;;;;;;;16.70;15.05;;;;;;;19.98;87.52;100484.34;5031199;28;20094;-70
2023/09/18 00:15:34;;;;;;;17.10;15.45;;;;;;;19.98;87.33;100475.88;5031547;28;20469;-70
2023/09/18 00:17:59;;;;;;;16.95;15.05;;;;;;;20.00;87.41;100474.41;5031918;28;20083;-70
2023/09/18 00:20:26;;;;;;;16.58;14.98;;;;;;;19.99;87.60;100457.81;5030995;28;20100;-70
2023/09/18 00:22:54;;;;;;;17.02;15.35;;;;;;;19.99;87.76;100460.63;5031607;28;20119;-70
2023/09/18 00:25:19;;;;;;;17.00;15.20;;;;;;;19.98;87.60;100448.53;5028705;28;20025;-70
2023/09/18 00:27:44;;;;;;;16.17;14.55;;;;;;;20.02;87.49;100448.72;5023677;28;20033;-70
2023/09/18 00:30:11;;;;;;;16.95;15.23;;;;;;;20.00;87.40;100439.75;5031370;28;20472;-70
2023/09/18 00:32:36;;;;;;;17.15;14.32;;;;;;;19.98;87.50;100431.66;5031606;28;20033;-70
2023/09/18 00:35:02;;;;;;;16.25;14.30;;;;;;;19.99;87.43;100426.84;5030919;28;20028;-70
2023/09/18 00:37:28;;;;;;;17.08;14.45;;;;;;;19.98;87.61;100422.38;5031447;28;20025;-70
2023/09/18 00:39:54;;;;;;;16.23;14.50;;;;;;;19.98;87.65;100423.19;5030289;28;20025;-70
2023/09/18 00:42:21;;;;;;;16.20;14.50;;;;;;;19.97;87.54;100423.53;5030548;28;20123;-70
2023/09/18 00:44:46;;;;;;;15.50;13.70;;;;;;;19.94;87.43;100416.56;5027307;28;20389;-70
2023/09/18 00:47:13;;;;;;;15.68;13.23;;;;;;;19.97;87.21;100401.81;5031279;28;20029;-70
2023/09/18 00:49:41;;;;;;;14.95;13.25;;;;;;;19.95;87.55;100401.31;5030488;28;20033;-70
2023/09/18 00:52:08;;;;;;;14.70;12.68;;;;;;;19.96;87.53;100402.13;5031218;28;20026;-70
2023/09/18 00:54:34;;;;;;;15.38;13.38;;;;;;;19.96;87.29;100404.94;5029698;28;20053;-70
2023/09/18 00:57:00;;;;;;;13.55;12.30;;;;;;;19.98;87.33;100403.47;5030201;28;20118;-70
2023/09/18 00:59:25;;;;;;;19.40;13.05;;;;;;;19.98;87.42;100388.56;5031115;28;20453;-70
2023/09/18 01:01:52;;;;;;;14.93;12.38;;;;;;;19.99;87.17;100388.22;5026644;28;20041;-70
2023/09/18 01:04:17;;;;;;;15.65;12.82;;;;;;;19.95;87.27;100381.59;5031680;28;20076;-70
2023/09/18 01:06:43;;;;;;;14.25;12.70;;;;;;;19.95;87.31;100373.13;5033411;28;20408;-70
2023/09/18 01:09:12;;;;;;;13.85;12.45;;;;;;;19.98;87.29;100368.84;5031283;28;20619;-71
2023/09/18 01:12:02;;;;;;;13.75;12.35;;;;;;;20.00;87.36;100355.25;5016554;28;20080;-70
2023/09/18 01:14:45;;;;;;;17.58;12.98;;;;;;;19.96;87.68;100359.88;5011568;28;20026;-71
2023/09/18 01:17:13;;;;;;;12.85;11.55;;;;;;;19.95;87.39;100352.59;5011138;28;20026;-71
2023/09/18 01:19:46;;;;;;;13.80;11.75;;;;;;;19.94;87.51;100339.66;5025067;28;20025;-71
2023/09/18 01:22:17;;;;;;;15.02;11.68;;;;;;;19.92;87.68;100341.97;5031034;28;20109;-70
2023/09/18 01:24:44;;;;;;;13.38;10.95;;;;;;;19.95;87.44;100347.78;5029183;28;20432;-71
2023/09/18 01:27:16;;;;;;;14.00;10.73;;;;;;;19.93;87.32;100354.94;5028661;28;20048;-70
2023/09/18 01:29:46;;;;;;;12.57;10.95;;;;;;;19.92;87.37;100351.25;5016602;28;20026;-70
2023/09/18 01:32:11;;;;;;;14.27;11.15;;;;;;;19.95;87.12;100347.78;5010146;28;20042;-70
2023/09/18 01:34:42;;;;;;;10.85;9.77;;;;;;;19.95;87.21;100344.13;5014276;28;20139;-70
2023/09/18 01:37:10;;;;;;;13.82;10.60;;;;;;;19.94;86.94;100350.94;5013221;28;20034;-70
2023/09/18 01:39:35;;;;;;;12.90;10.40;;;;;;;19.96;86.84;100359.88;5010184;28;20124;-70
2023/09/18 01:42:06;;;;;;;12.90;9.90;;;;;;;19.94;86.65;100357.41;5011146;28;20101;-70
2023/09/18 01:44:33;;;;;;;14.82;9.85;;;;;;;19.97;86.24;100356.75;5011288;28;20102;-70
2023/09/18 01:46:59;;;;;;;12.95;9.52;;;;;;;19.97;86.14;100358.75;5013271;28;20033;-70
2023/09/18 01:49:36;;;;;;;11.45;8.95;;;;;;;19.98;85.98;100351.94;5014212;28;20029;-70
2023/09/18 01:52:03;;;;;;;12.55;8.18;;;;;;;19.97;85.87;100351.13;5029681;28;20037;-70
2023/09/18 01:54:29;;;;;;;12.60;8.10;;;;;;;19.97;85.62;100353.09;5011151;28;20035;-70
2023/09/18 01:56:54;;;;;;;15.27;7.82;;;;;;;20.00;85.79;100344.84;5014457;28;20034;-70
2023/09/18 01:59:20;;;;;;;15.52;8.80;;;;;;;20.02;85.85;100350.94;5013732;28;20581;-70
2023/09/18 02:01:46;;;;;;;15.05;8.02;;;;;;;20.01;85.46;100335.22;5014181;28;20030;-70
2023/09/18 02:04:11;;;;;;;13.13;8.20;;;;;;;20.03;85.20;100332.88;5024354;28;20030;-70
2023/09/18 02:06:36;;;;;;;12.45;7.78;;;;;;;20.04;85.19;100333.72;5013745;28;20026;-71
2023/09/18 02:09:03;;;;;;;12.85;8.20;;;;;;;20.02;85.63;100336.03;5014522;28;20084;-70
2023/09/18 02:11:29;;;;;;;11.57;7.10;;;;;;;20.04;85.93;100336.53;5033914;28;20437;-71
2023/09/18 02:13:54;;;;;;;13.30;7.47;;;;;;;20.04;85.83;100334.56;5033317;28;20116;-70
2023/09/18 02:16:24;;;;;;;11.25;7.25;;;;;;;20.04;85.18;100337.38;5033769;28;20028;-70
2023/09/18 02:18:52;;;;;;;14.25;7.90;;;;;;;20.06;85.05;100337.03;5032508;28;20518;-70
2023/09/18 02:21:21;;;;;;;11.57;8.00;;;;;;;20.04;85.21;100328.06;5030493;28;20044;-70
2023/09/18 02:23:50;;;;;;;10.40;7.75;;;;;;;20.04;85.67;100316.81;5035813;28;20029;-70
2023/09/18 02:26:15;;;;;;;11.68;7.60;;;;;;;20.04;86.06;100311.16;5040347;28;20456;-70
2023/09/18 02:28:41;;;;;;;15.10;7.50;;;;;;;20.02;85.73;100308.69;5032024;28;20040;-70
2023/09/18 02:31:06;;;;;;;15.07;7.57;;;;;;;20.02;86.23;100308.69;5032571;28;20437;-71
2023/09/18 02:33:34;;;;;;;10.15;6.82;;;;;;;20.01;85.99;100292.97;5031210;28;20037;-71
2023/09/18 02:35:59;;;;;;;10.15;7.70;;;;;;;20.00;86.04;100282.00;5032596;28;20096;-70
2023/09/18 02:38:25;;;;;;;11.27;7.63;;;;;;;20.01;86.09;100280.88;5032403;28;20445;-70
2023/09/18 02:40:50;;;;;;;10.75;7.13;;;;;;;20.03;85.30;100286.97;5021002;28;20029;-71
2023/09/18 02:43:19;;;;;;;12.55;7.65;;;;;;;20.01;85.53;100278.88;5027937;28;20761;-70
2023/09/18 02:45:45;;;;;;;11.23;7.45;;;;;;;20.03;85.33;100270.91;5032444;28;20519;-70
2023/09/18 02:48:11;;;;;;;13.07;7.40;;;;;;;20.01;85.49;100255.50;5030892;28;20037;-70
2023/09/18 02:50:36;;;;;;;14.82;7.85;;;;;;;20.02;85.54;100259.97;5031485;28;20076;-70
2023/09/18 02:53:03;;;;;;;12.73;7.45;;;;;;;20.02;84.99;100251.53;5030551;28;20041;-70
2023/09/18 02:55:28;;;;;;;9.77;7.15;;;;;;;20.03;85.12;100264.44;5031524;28;20113;-71
2023/09/18 02:57:53;;;;;;;12.98;7.28;;;;;;;20.03;84.83;100256.81;5020453;28;20116;-70
2023/09/18 03:00:22;;;;;;;11.48;7.50;;;;;;;20.03;85.09;100254.00;5032177;28;20079;-70
2023/09/18 03:02:47;;;;;;;15.27;6.65;;;;;;;20.03;84.95;100230.63;5030309;28;20049;-70
2023/09/18 03:05:12;;;;;;;12.48;7.07;;;;;;;20.04;84.73;100223.84;5030373;28;20036;-70
2023/09/18 03:07:38;;;;;;;9.48;6.05;;;;;;;20.05;84.72;100236.78;5031225;28;20033;-71
2023/09/18 03:10:04;;;;;;;11.15;7.18;;;;;;;20.06;84.74;100211.09;5032018;28;20052;-70
2023/09/18 03:12:33;;;;;;;12.20;7.35;;;;;;;20.06;84.82;100221.53;5031900;28;20542;-70
2023/09/18 03:15:01;;;;;;;12.98;7.20;;;;;;;20.06;84.98;100216.72;5018333;28;20037;-70
2023/09/18 03:17:26;;;;;;;15.27;7.35;;;;;;;20.05;85.10;100222.69;5030945;28;20052;-70
2023/09/18 03:19:52;;;;;;;12.73;6.95;;;;;;;20.05;85.07;100202.97;5031131;28;20107;-70
2023/09/18 03:22:17;;;;;;;13.43;7.25;;;;;;;20.07;85.21;100217.53;5026345;28;20033;-70
2023/09/18 03:24:43;;;;;;;17.23;7.25;;;;;;;20.10;85.40;100225.34;5030005;28;20487;-70
2023/09/18 03:27:08;;;;;;;11.35;6.95;;;;;;;20.10;84.94;100225.34;5031543;28;20033;-70
2023/09/18 03:29:33;;;;;;;13.90;6.55;;;;;;;20.08;84.91;100222.88;5027068;28;20041;-70
2023/09/18 03:31:59;;;;;;;13.00;7.18;;;;;;;20.09;84.69;100229.31;5012917;28;20113;-70
2023/09/18 03:34:26;;;;;;;13.93;6.60;;;;;;;20.08;84.70;100239.78;5013107;28;20037;-70
2023/09/18 03:36:52;;;;;;;13.07;7.18;;;;;;;20.09;84.86;100246.22;5024058;28;20056;-70
2023/09/18 03:39:17;;;;;;;12.60;7.05;;;;;;;20.06;84.92;100241.25;5016464;28;20363;-70
2023/09/18 03:41:46;;;;;;;14.95;7.55;;;;;;;20.04;85.53;100247.22;5012260;28;20037;-70
2023/09/18 03:44:16;;;;;;;13.63;7.88;;;;;;;20.04;85.67;100232.28;5011694;28;20084;-70
2023/09/18 03:46:41;;;;;;;13.98;7.68;;;;;;;20.04;85.76;100246.38;5012168;28;20026;-70
2023/09/18 03:49:06;;;;;;;11.30;7.60;;;;;;;20.04;85.78;100254.81;5028845;28;20056;-70
2023/09/18 03:51:32;;;;;;;11.57;7.38;;;;;;;20.04;86.47;100252.00;5027036;28;20096;-70
2023/09/18 03:53:57;;;;;;;10.15;6.80;;;;;;;20.04;86.39;100241.59;5014053;28;20029;-70
2023/09/18 03:56:23;;;;;;;12.45;7.32;;;;;;;20.04;86.75;100232.28;5015909;28;20022;-70
2023/09/18 03:58:49;;;;;;;12.30;7.38;;;;;;;20.05;86.73;100231.16;5011283;28;20040;-70
2023/09/18 04:01:17;;;;;;;11.82;7.15;;;;;;;20.06;86.75;100227.16;5012015;28;20481;-70
2023/09/18 04:03:43;;;;;;;12.93;7.30;;;;;;;20.01;87.36;100250.72;5026324;28;20524;-71
2023/09/18 04:06:08;;;;;;;15.07;8.70;;;;;;;20.01;87.06;100252.69;5030394;28;20164;-71
2023/09/18 04:08:39;;;;;;;12.20;7.95;;;;;;;20.01;87.70;100261.16;5026605;28;20074;-70
2023/09/18 04:11:04;;;;;;;12.27;7.63;;;;;;;20.03;87.52;100261.63;5012722;28;20064;-71
2023/09/18 04:13:30;;;;;;;12.15;8.13;;;;;;;20.04;87.63;100255.69;5014210;28;20073;-71
2023/09/18 04:16:01;;;;;;;14.55;8.00;;;;;;;20.00;88.55;100256.66;5012128;28;20428;-70
2023/09/18 04:18:27;;;;;;;13.82;7.90;;;;;;;20.00;88.50;100254.69;5021980;28;20045;-70
2023/09/18 04:20:52;;;;;;;11.63;8.05;;;;;;;20.00;88.59;100242.56;5030787;28;20021;-70
2023/09/18 04:23:19;;;;;;;10.50;8.02;;;;;;;20.02;88.68;100235.44;5031429;28;20021;-70
2023/09/18 04:25:45;;;;;;;11.38;7.88;;;;;;;20.02;88.79;100229.81;5025201;28;20115;-70
2023/09/18 04:28:12;;;;;;;13.32;8.45;;;;;;;20.02;89.07;100220.53;5018669;28;20091;-71
2023/09/18 04:30:37;;;;;;;12.00;8.60;;;;;;;20.01;89.15;100224.53;5012045;28;20068;-70
2023/09/18 04:33:05;;;;;;;11.05;8.00;;;;;;;20.00;89.23;100223.69;5011737;28;20029;-70
2023/09/18 04:35:31;;;;;;;14.57;8.57;;;;;;;19.99;89.63;100218.38;5010981;28;20084;-70
2023/09/18 04:37:58;;;;;;;13.05;9.45;;;;;;;19.97;89.55;100209.44;5012624;28;20080;-70
2023/09/18 04:40:24;;;;;;;11.98;8.32;;;;;;;19.99;89.67;100207.13;5030456;28;20022;-70
2023/09/18 04:42:50;;;;;;;13.27;9.52;;;;;;;19.98;89.71;100189.38;5024471;28;20109;-71
2023/09/18 04:45:18;;;;;;;11.75;8.50;;;;;;;19.97;90.17;100175.66;5016729;28;20035;-70
2023/09/18 04:47:43;;;;;;;13.85;8.63;;;;;;;20.00;89.84;100163.69;5048596;28;20052;-70
2023/09/18 04:50:09;;;;;;;10.88;8.60;;;;;;;19.98;89.75;100168.84;5050581;28;20476;-70
2023/09/18 04:52:35;;;;;;;11.18;9.02;;;;;;;19.99;89.77;100162.03;5048987;28;20388;-70
2023/09/18 04:55:01;;;;;;;15.07;9.23;;;;;;;19.95;90.11;100161.06;5030150;28;20041;-70
2023/09/18 04:57:41;;;;;;;12.05;9.32;;;;;;;19.96;90.23;100157.91;5031088;28;20034;-68
2023/09/18 05:00:12;;;;;;;15.45;9.25;;;;;;;19.95;90.18;100163.88;5021936;28;20030;-71
2023/09/18 05:02:38;;;;;;;12.13;9.55;;;;;;;19.98;89.87;100161.22;5028114;28;20040;-70
2023/09/18 05:05:04;;;;;;;14.00;9.35;;;;;;;19.95;90.21;100158.25;5030908;28;20026;-70
2023/09/18 05:07:30;;;;;;;10.77;9.20;;;;;;;19.92;90.33;100156.09;5030933;28;20026;-69
2023/09/18 05:09:55;;;;;;;13.27;9.60;;;;;;;19.93;90.31;100152.94;5027584;28;20033;-70
2023/09/18 05:12:22;;;;;;;11.90;9.38;;;;;;;19.92;90.29;100164.53;5029974;28;20485;-69
2023/09/18 05:14:51;;;;;;;13.35;9.25;;;;;;;19.90;90.38;100161.25;5030825;28;20040;-70
2023/09/18 05:17:17;;;;;;;12.05;8.77;;;;;;;19.88;90.28;100164.38;5029478;28;20057;-70
2023/09/18 05:19:45;;;;;;;10.68;7.43;;;;;;;19.90;89.82;100169.69;5030813;28;20499;-70
2023/09/18 05:22:13;;;;;;;9.93;6.15;;;;;;;19.91;88.70;100176.97;5031026;28;20048;-70
2023/09/18 05:24:39;;;;;;;9.70;5.60;;;;;;;19.84;87.99;100183.91;5030371;28;20049;-72
2023/09/18 05:27:07;;;;;;;7.25;4.78;;;;;;;19.84;87.81;100183.91;5027921;28;20108;-71
2023/09/18 05:29:35;;;;;;;9.57;4.90;;;;;;;19.77;87.59;100188.41;5017295;28;20362;-69
2023/09/18 05:32:00;;;;;;;8.65;4.90;;;;;;;19.78;87.04;100184.44;5033723;28;20021;-70
2023/09/18 05:34:25;;;;;;;6.38;4.63;;;;;;;19.76;86.87;100173.47;5022990;28;20928;-67
2023/09/18 05:36:51;;;;;;;7.20;3.75;;;;;;;19.77;86.36;100166.72;5012603;28;20042;-70
2023/09/18 05:39:17;;;;;;;5.85;4.20;;;;;;;19.81;86.37;100172.50;5022887;28;20026;-70
2023/09/18 05:41:42;;;;;;;6.82;3.67;;;;;;;19.81;85.84;100180.97;5029980;28;20080;-70
2023/09/18 05:44:08;;;;;;;5.50;3.17;;;;;;;19.81;85.46;100166.88;5029293;28;20041;-65
2023/09/18 05:46:36;;;;;;;5.95;3.47;;;;;;;19.78;85.37;100171.19;5033435;28;20108;-68
2023/09/18 05:49:04;;;;;;;4.97;2.97;;;;;;;19.78;84.77;100179.63;5033414;28;20037;-68
2023/09/18 05:51:30;;;;;;;3.50;2.85;;;;;;;19.75;84.80;100190.72;5019567;28;20469;-68
2023/09/18 05:53:55;;;;;;;4.35;2.88;;;;;;;19.76;84.67;100196.00;5025974;28;20087;-67
2023/09/18 05:56:21;;;;;;;5.72;2.50;;;;;;;19.75;83.97;100193.53;5044151;28;20037;-69
2023/09/18 05:58:46;;;;;;;4.43;2.63;;;;;;;19.72;83.99;100205.44;5035427;28;20385;-68
2023/09/18 06:01:11;;;;;;;6.60;2.60;;;;;;;19.72;84.16;100203.47;5033348;28;20499;-67
2023/09/18 06:03:37;;;;;;;3.00;2.03;;;;;;;19.68;83.39;100202.47;5021053;28;20164;-67
2023/09/18 06:06:03;;;;;;;4.38;2.28;;;;;;;19.67;83.69;100214.91;5033467;28;20407;-67
2023/09/18 06:08:30;;;;;;;4.57;2.50;;;;;;;19.67;83.58;100212.06;5032808;28;20119;-68
2023/09/18 06:10:55;;;;;;;3.72;1.80;;;;;;;19.65;83.71;100217.22;5040814;28;20025;-69
2023/09/18 06:13:22;;;;;;;2.85;1.92;;;;;;;19.70;83.70;100217.06;5043531;28;20025;-69
2023/09/18 06:15:47;;;;;;;4.57;2.00;;;;;;;19.72;84.16;100213.91;5029005;28;20033;-69
2023/09/18 06:18:13;;;;;;;3.90;1.98;;;;;;;19.70;83.56;100211.44;5022592;28;20396;-75
2023/09/18 06:20:39;;;;;;;9.00;2.28;;;;;;;19.71;83.67;100217.88;5030305;28;20945;-72
2023/09/18 06:23:04;;;;;;;3.03;1.80;;;;;;;19.68;83.52;100207.28;5025179;28;20037;-66
2023/09/18 06:25:31;;;;;;;4.65;2.10;;;;;;;19.70;83.49;100225.50;5017584;28;20045;-74
2023/09/18 06:27:57;;;;;;;5.82;1.88;;;;;;;19.68;83.05;100222.19;5018440;28;20465;-74
2023/09/18 06:30:22;;;;;;;2.92;1.90;;;;;;;19.67;83.12;100226.16;5030405;28;20032;-75
2023/09/18 06:32:48;;;;;;;3.67;1.92;;;;;;;19.67;83.43;100236.59;5030267;28;20708;-75
2023/09/18 06:35:13;;;;;;;5.32;1.98;;;;;;;19.70;83.48;100221.88;5029055;28;20025;-74
2023/09/18 06:37:38;;;;;;;3.95;1.95;;;;;;;19.70;82.91;100233.13;5021578;28;20563;-69
2023/09/18 06:40:05;;;;;;;3.38;1.90;;;;;;;19.70;82.96;100231.13;5030080;28;20037;-70
2023/09/18 06:42:31;;;;;;;5.45;2.03;;;;;;;19.67;82.97;100242.22;5030283;28;20052;-71
2023/09/18 06:44:56;;;;;;;6.28;2.35;;;;;;;19.70;83.10;100245.22;5026722;28;20164;-71
2023/09/18 06:47:24;;;;;;;5.60;2.05;;;;;;;19.71;83.16;100240.41;5013427;28;20092;-71
2023/09/18 06:49:49;;;;;;;6.20;1.90;;;;;;;19.70;82.80;100248.03;5010873;28;20363;-71
2023/09/18 06:52:15;;;;;;;3.58;2.00;;;;;;;19.72;82.82;100258.94;5032419;28;20041;-71
2023/09/18 06:54:43;;;;;;;4.20;2.08;;;;;;;19.71;82.02;100252.50;5031658;28;20025;-72
2023/09/18 06:57:09;;;;;;;5.53;2.10;;;;;;;19.72;82.51;100261.75;5029404;28;20105;-69
2023/09/18 06:59:35;;;;;;;4.25;1.80;;;;;;;19.74;82.73;100276.34;5024669;28;20136;-70
2023/09/18 07:02:01;;;;;;;4.25;2.17;;;;;;;19.72;82.80;100268.22;5032241;28;20041;-72
2023/09/18 07:04:26;;;;;;;8.02;2.60;;;;;;;19.74;82.67;100267.91;5031647;28;20032;-73
2023/09/18 07:06:53;;;;;;;3.38;1.75;;;;;;;19.76;82.49;100254.31;5019288;28;20041;-72
2023/09/18 07:09:19;;;;;;;4.93;1.98;;;;;;;19.74;81.72;100254.66;5014190;28;20073;-73
2023/09/18 07:11:45;;;;;;;3.83;1.60;;;;;;;19.76;82.20;100262.75;5031180;28;20481;-71
2023/09/18 07:14:10;;;;;;;6.93;1.83;;;;;;;19.77;82.14;100265.28;5031446;28;20045;-71
2023/09/18 07:16:35;;;;;;;5.18;2.10;;;;;;;19.74;81.99;100271.56;5028884;28;20108;-72
2023/09/18 07:19:04;;;;;;;3.88;1.95;;;;;;;19.75;81.75;100269.56;5029025;28;20532;-72
2023/09/18 07:21:29;;;;;;;3.85;1.90;;;;;;;19.76;82.05;100276.84;5025991;28;20037;-74
2023/09/18 07:23:55;;;;;;;4.93;1.70;;;;;;;19.76;81.97;100283.31;5024393;28;20037;-70
2023/09/18 07:26:20;;;;;;;3.50;2.10;;;;;;;19.77;81.58;100275.72;5031627;28;20168;-71
2023/09/18 07:28:46;;;;;;;3.35;2.45;;;;;;;19.81;81.71;100266.25;5031613;28;20029;-66
2023/09/18 07:31:12;;;;;;;2.33;1.85;;;;;;;19.82;81.62;100281.16;5027655;28;20595;-67
2023/09/18 07:33:37;;;;;;;3.50;1.70;;;;;;;19.82;81.66;100290.44;5029901;28;20204;-64
2023/09/18 07:36:03;;;;;;;2.97;2.00;;;;;;;19.81;81.56;100280.34;5031216;28;20048;-64
2023/09/18 07:38:29;;;;;;;3.13;1.77;;;;;;;19.83;81.68;100280.84;5022697;28;20037;-64
2023/09/18 07:40:56;;;;;;;3.38;1.73;;;;;;;19.84;80.99;100290.94;5011220;28;20100;-65
2023/09/18 07:43:22;;;;;;;5.20;1.92;;;;;;;19.83;81.14;100299.72;5023455;28;20797;-65
2023/09/18 07:45:49;;;;;;;5.50;1.73;;;;;;;19.83;81.15;100282.81;5045117;28;20033;-68
2023/09/18 07:48:17;;;;;;;5.80;1.98;;;;;;;19.81;80.73;100291.63;5030312;28;20021;-68
2023/09/18 07:50:44;;;;;;;3.75;2.10;;;;;;;19.84;80.97;100290.09;5029460;28;20503;-69
2023/09/18 07:53:09;;;;;;;4.22;2.05;;;;;;;19.84;80.60;100292.91;5030796;28;20489;-67
2023/09/18 07:55:34;;;;;;;4.28;1.85;;;;;;;19.94;80.86;100284.16;5030878;28;20029;-68
2023/09/18 07:58:00;;;;;;;9.18;2.30;;;;;;;19.93;80.49;100288.16;5030295;28;20030;-67
2023/09/18 08:00:25;;;;;;;3.42;2.10;;;;;;;19.99;80.15;100280.34;5027827;28;20029;-69
2023/09/18 08:02:54;;;;;;;4.82;2.50;;;;;;;20.05;80.28;100279.03;5029330;28;20115;-69
2023/09/18 08:05:19;;;;;;;3.03;2.13;;;;;;;20.03;79.59;100276.53;5019127;28;20477;-68
2023/09/18 08:07:51;;;;;;;5.20;2.10;;;;;;;20.08;79.26;100281.19;5029925;28;20098;-68
2023/09/18 08:10:17;;;;;;;3.25;1.88;;;;;;;20.05;79.47;100296.78;5030673;28;20029;-68
2023/09/18 08:12:43;;;;;;;4.15;2.13;;;;;;;20.06;79.01;100297.59;5029669;28;20017;-68
2023/09/18 08:15:09;;;;;;;5.43;2.15;;;;;;;20.13;79.42;100289.47;5031107;28;20044;-69
2023/09/18 08:17:34;;;;;;;5.30;2.25;;;;;;;20.16;78.97;100279.53;5025557;28;20038;-72
2023/09/18 08:20:00;;;;;;;9.45;2.80;;;;;;;20.23;78.61;100293.94;5030113;28;20033;-73
2023/09/18 08:22:28;;;;;;;3.30;2.13;;;;;;;20.21;77.88;100296.28;5030285;28;20033;-73
2023/09/18 08:24:53;;;;;;;2.58;1.70;;;;;;;20.26;77.89;100307.38;5029347;28;20025;-74
2023/09/18 08:27:19;;;;;;;3.17;1.80;;;;;;;20.23;77.22;100305.22;5029969;28;20025;-69
2023/09/18 08:29:46;;;;;;;7.32;2.17;;;;;;;20.32;77.50;100311.72;5029731;28;20033;-67
2023/09/18 08:32:11;;;;;;;3.42;2.17;;;;;;;20.46;77.05;100311.50;5030918;28;20168;-67
2023/09/18 08:34:36;;;;;;;3.95;2.17;;;;;;;20.57;76.53;100312.88;5023252;28;20069;-67
2023/09/18 08:37:02;;;;;;;4.82;1.88;;;;;;;20.53;75.63;100323.97;5011267;28;20439;-67
2023/09/18 08:39:29;;;;;;;3.03;1.90;;;;;;;20.60;76.08;100326.31;5020135;28;20040;-67
2023/09/18 08:42:02;;;;;;;2.65;1.92;;;;;;;20.61;76.13;100318.66;5029474;28;20029;-67
2023/09/18 08:44:28;;;;;;;8.43;2.25;;;;;;;20.62;75.81;100343.69;5021975;28;20026;-67
2023/09/18 08:46:56;;;;;;;8.02;2.35;;;;;;;20.64;75.57;100330.13;5028811;28;20533;-69
2023/09/18 08:49:23;;;;;;;4.65;1.88;;;;;;;20.70;75.47;100328.75;5030536;28;20052;-70
2023/09/18 08:51:50;;;;;;;4.63;1.73;;;;;;;20.83;75.50;100321.28;5017535;28;20033;-74
2023/09/18 08:54:16;;;;;;;3.42;2.00;;;;;;;20.88;74.96;100329.56;5026104;28;20052;-74
2023/09/18 08:56:41;;;;;;;3.58;1.83;;;;;;;20.94;75.33;100321.75;5024875;28;20065;-74
2023/09/18 08:59:07;;;;;;;3.40;2.03;;;;;;;20.92;73.79;100318.44;5025106;28;20465;-73
2023/09/18 09:01:32;;;;;;;2.80;1.88;;;;;;;20.96;73.81;100330.72;5015766;28;20807;-74
2023/09/18 09:03:57;;;;;;;5.28;2.00;;;;;;;20.99;73.44;100330.06;5010989;28;20038;-74
2023/09/18 09:06:23;;;;;;;3.90;1.75;;;;;;;21.14;74.80;100331.47;5028354;28;20456;-72
2023/09/18 09:08:50;;;;;;;7.20;1.92;;;;;;;21.23;73.00;100329.47;5033313;28;20444;-73
2023/09/18 09:11:15;;;;;;;4.78;1.92;;;;;;;21.35;72.55;100332.44;5029340;28;20128;-67
2023/09/18 09:13:46;;;;;;;4.82;2.47;;;;;;;21.35;71.85;100334.44;5024256;28;20113;-65
2023/09/18 09:16:16;;;;;;;4.93;2.35;;;;;;;21.39;71.98;100335.44;5019131;28;20085;-66
2023/09/18 09:18:49;;;;;;;13.25;2.20;;;;;;;21.52;72.61;100337.19;5031567;28;20037;-69
2023/09/18 09:21:15;;;;;;;5.30;2.40;;;;;;;21.57;71.15;100334.16;5031451;28;20052;-66
2023/09/18 09:23:52;;;;;;;5.50;2.40;;;;;;;21.54;71.67;100348.97;5028919;28;20212;-66
2023/09/18 09:26:19;;;;;;;6.13;3.15;;;;;;;21.45;71.23;100351.81;5026299;28;20037;-66
2023/09/18 09:28:44;;;;;;;6.05;2.92;;;;;;;21.41;71.25;100355.66;5030142;28;20789;-66
2023/09/18 09:31:10;;;;;;;6.40;2.53;;;;;;;21.41;72.12;100347.19;5025976;28;20128;-72
2023/09/18 09:33:38;;;;;;;4.18;2.50;;;;;;;21.45;71.61;100348.16;5012878;28;20212;-72
2023/09/18 09:36:05;;;;;;;5.68;2.40;;;;;;;21.41;72.04;100358.47;5013387;28;20026;-71
2023/09/18 09:38:33;;;;;;;5.38;2.50;;;;;;;21.33;71.66;100357.34;5013901;28;20017;-72
2023/09/18 09:41:00;;;;;;;5.30;2.60;;;;;;;21.38;72.22;100354.38;5017905;28;20101;-72
2023/09/18 09:43:26;;;;;;;6.00;2.30;;;;;;;21.35;72.10;100363.50;5013566;28;20030;-72
2023/09/18 09:46:00;;;;;;;6.45;2.53;;;;;;;21.29;71.63;100354.34;5027926;28;20110;-71
2023/09/18 09:48:25;;;;;;;4.75;2.80;;;;;;;21.22;71.37;100342.78;5032515;28;20423;-72
2023/09/18 09:50:51;;;;;;;4.70;2.85;;;;;;;21.21;72.00;100346.72;5030228;28;20026;-71
2023/09/18 09:53:18;;;;;;;6.75;2.83;;;;;;;21.21;72.06;100343.91;5013803;28;20042;-71
2023/09/18 09:55:43;;;;;;;5.90;2.58;;;;;;;21.17;72.53;100342.09;5013529;28;20045;-72
2023/09/18 09:58:10;;;;;;;8.95;2.60;;;;;;;21.24;73.19;100346.06;5013080;28;20034;-72
2023/09/18 10:00:43;;;;;;;3.85;2.22;;;;;;;21.22;72.60;100342.78;5028052;28;20021;-71
2023/09/18 10:03:10;;;;;;;6.90;2.42;;;;;;;21.27;73.09;100353.03;5028636;28;20058;-72
2023/09/18 10:05:38;;;;;;;5.93;2.42;;;;;;;21.25;72.36;100355.34;5021157;28;20026;-73
2023/09/18 10:08:09;;;;;;;6.60;2.22;;;;;;;21.30;73.10;100358.84;5013520;28;20129;-71
2023/09/18 10:10:39;;;;;;;3.83;2.20;;;;;;;21.28;72.41;100380.91;5012995;28;20033;-73
2023/09/18 10:13:13;;;;;;;10.35;2.60;;;;;;;21.35;73.09;100368.31;5023193;28;20043;-72
2023/09/18 10:15:42;;;;;;;6.10;2.47;;;;;;;21.30;71.48;100364.50;5026282;28;20411;-72
2023/09/18 10:18:17;;;;;;;4.93;2.40;;;;;;;21.37;71.95;100383.75;5027601;28;20030;-72
2023/09/18 10:20:45;;;;;;;6.95;2.45;;;;;;;21.44;71.60;100361.47;5030020;28;20596;-72
2023/09/18 10:23:24;;;;;;;6.63;2.50;;;;;;;21.51;71.25;100364.59;5016918;28;20049;-72
2023/09/18 10:25:55;;;;;;;5.85;2.53;;;;;;;21.66;70.37;100360.38;5009835;28;20036;-72
2023/09/18 10:28:23;;;;;;;3.22;2.28;;;;;;;21.77;70.68;100375.78;5010541;28;20535;-72
2023/09/18 10:30:50;;;;;;;10.95;3.00;;;;;;;21.78;69.35;100383.09;5010389;28;20037;-71
2023/09/18 10:33:16;;;;;;;6.47;2.80;;;;;;;21.85;69.53;100368.44;5013077;28;20087;-71
2023/09/18 10:35:43;;;;;;;4.65;2.65;;;;;;;21.92;69.95;100374.34;5029285;28;20033;-73
2023/09/18 10:38:09;;;;;;;5.70;2.60;;;;;;;21.90;69.37;100364.56;5030401;28;20029;-70
2023/09/18 10:40:36;;;;;;;4.43;2.70;;;;;;;21.82;69.02;100366.28;5027439;28;20388;-75
2023/09/18 10:43:04;;;;;;;6.00;2.72;;;;;;;21.81;70.19;100373.06;5029941;28;20072;-72
2023/09/18 10:45:31;;;;;;;4.93;2.40;;;;;;;21.73;69.88;100386.09;5027283;28;20083;-73
2023/09/18 10:47:57;;;;;;;3.88;2.60;;;;;;;21.75;69.95;100380.94;5031977;28;20393;-73
2023/09/18 10:50:27;;;;;;;4.72;2.85;;;;;;;21.64;69.24;100374.00;5029562;28;20465;-75
2023/09/18 10:52:58;;;;;;;5.93;2.80;;;;;;;21.67;69.99;100366.84;5031971;28;20065;-72
2023/09/18 10:55:24;;;;;;;5.70;2.78;;;;;;;21.69;70.48;100359.72;5031346;28;20156;-76
2023/09/18 10:57:54;;;;;;;5.97;2.92;;;;;;;21.65;69.72;100367.19;5022004;28;20041;-74
2023/09/18 11:00:25;;;;;;;4.57;2.97;;;;;;;21.62;68.50;100359.41;5018810;28;20029;-75
2023/09/18 11:02:53;;;;;;;7.13;3.10;;;;;;;21.63;69.68;100355.41;5031562;28;20037;-77
2023/09/18 11:05:38;;;;;;;5.50;3.17;;;;;;;21.67;70.08;100356.38;5031322;28;20495;-74
2023/09/18 11:08:45;;;;;;;5.30;3.15;;;;;;;21.84;70.45;100365.94;5031955;28;20041;-76
2023/09/18 11:11:14;;;;;;;7.22;3.38;;;;;;;21.98;68.57;100360.88;5029771;28;20028;-73
2023/09/18 11:13:43;;;;;;;5.90;2.70;;;;;;;22.10;68.59;100352.47;5029858;28;20022;-75
2023/09/18 11:16:15;;;;;;;4.68;3.28;;;;;;;22.23;68.08;100359.88;5025940;28;20072;-71
2023/09/18 11:18:41;;;;;;;5.85;3.08;;;;;;;22.27;66.51;100358.03;5024511;28;20555;-73